Time;durP1;ratioP1;P1;durP2;ratioP2;P2;SDS_P1;SDS_P2;PMS_P1;PMS_P2;Temp;Humidity;BMP_temperature;BMP_pressure;BME280_temperature;BME280_humidity;BME280_pressure;Samples;Min_cycle;Max_cycle;Signal;HPM_P1;HPM_P2
2023/03/03 00:00:48;;;;;;;52.93;30.07;;;;;;;7.10;50.66;97627.22;4953390;28;20214;-70
2023/03/03 00:03:19;;;;;;;53.80;32.90;;;;;;;7.06;50.50;97626.59;4954612;28;20434;-72
2023/03/03 00:05:45;;;;;;;52.43;29.50;;;;;;;7.12;50.48;97625.31;4953030;28;20427;-69
2023/03/03 00:08:10;;;;;;;49.50;30.57;;;;;;;7.15;50.68;97625.06;4953729;28;20805;-71
2023/03/03 00:10:36;;;;;;;50.40;29.87;;;;;;;7.14;50.52;97626.84;4935837;29;20182;-70
2023/03/03 00:13:02;;;;;;;49.27;30.63;;;;;;;7.09;50.46;97631.59;4973149;28;20275;-71
2023/03/03 00:15:29;;;;;;;57.90;30.63;;;;;;;6.62;51.56;97634.31;4953387;28;20434;-71
2023/03/03 00:17:54;;;;;;;61.60;31.20;;;;;;;6.79;51.13;97627.81;4956734;28;20202;-71
2023/03/03 00:20:33;;;;;;;49.00;29.30;;;;;;;6.89;51.74;97631.38;4970026;28;20532;-70
2023/03/03 00:23:27;;;;;;;51.57;28.63;;;;;;;7.00;51.08;97634.91;4962402;28;20899;-70
2023/03/03 00:25:53;;;;;;;51.50;29.17;;;;;;;7.08;50.82;97627.31;4942463;28;20434;-72
2023/03/03 00:28:26;;;;;;;50.00;28.70;;;;;;;7.09;50.99;97626.38;4955115;28;20477;-69
2023/03/03 00:30:52;;;;;;;48.87;28.33;;;;;;;6.96;51.12;97630.88;4952525;28;20414;-69
2023/03/03 00:33:31;;;;;;;60.63;29.53;;;;;;;6.90;51.38;97627.81;4944131;29;20434;-70
2023/03/03 00:36:20;;;;;;;46.53;27.70;;;;;;;6.78;51.57;97630.53;4960338;28;20469;-68
2023/03/03 00:38:46;;;;;;;46.43;27.57;;;;;;;6.82;51.68;97626.75;4960073;28;20462;-69
2023/03/03 00:41:21;;;;;;;43.77;26.47;;;;;;;6.67;51.74;97626.16;4956023;28;20426;-69
2023/03/03 00:43:47;;;;;;;44.63;26.83;;;;;;;6.78;51.76;97628.78;4964223;28;20482;-68
2023/03/03 00:46:18;;;;;;;44.57;24.87;;;;;;;6.74;51.39;97620.34;4954908;28;20576;-68
2023/03/03 00:48:43;;;;;;;47.43;27.40;;;;;;;6.71;52.02;97622.34;4953474;28;20903;-69
2023/03/03 00:51:25;;;;;;;44.50;26.53;;;;;;;6.68;51.87;97622.63;4954857;28;20459;-68
2023/03/03 00:53:51;;;;;;;52.87;26.87;;;;;;;6.58;51.98;97625.91;4953053;28;20178;-68
2023/03/03 00:56:16;;;;;;;47.17;27.27;;;;;;;6.50;51.76;97620.44;4956508;28;20894;-71
2023/03/03 00:58:44;;;;;;;48.40;28.03;;;;;;;6.46;51.89;97619.00;4956089;28;20285;-69
2023/03/03 01:01:10;;;;;;;48.83;27.20;;;;;;;6.49;51.93;97629.22;4945468;28;20195;-69
2023/03/03 01:03:35;;;;;;;47.30;26.37;;;;;;;6.49;51.67;97618.78;4952434;28;20502;-70
2023/03/03 01:06:01;;;;;;;48.03;27.37;;;;;;;6.37;52.11;97620.53;4951921;28;20206;-71
2023/03/03 01:08:26;;;;;;;46.20;27.10;;;;;;;6.39;51.44;97618.66;4952535;28;20206;-71
2023/03/03 01:10:54;;;;;;;47.63;26.60;;;;;;;6.35;51.48;97614.63;4941787;28;20280;-70
2023/03/03 01:13:22;;;;;;;45.80;26.73;;;;;;;6.27;51.67;97612.59;4941580;28;20197;-71
2023/03/03 01:15:48;;;;;;;47.27;26.70;;;;;;;6.28;51.59;97616.03;4943589;28;20425;-70
2023/03/03 01:18:13;;;;;;;44.53;27.17;;;;;;;6.15;51.91;97613.53;4965145;28;20805;-70
2023/03/03 01:20:39;;;;;;;44.63;26.87;;;;;;;6.04;52.74;97619.53;4951669;28;20450;-70
2023/03/03 01:23:05;;;;;;;46.53;25.93;;;;;;;6.11;52.52;97614.69;4971639;28;20578;-70
2023/03/03 01:25:30;;;;;;;45.43;26.50;;;;;;;6.18;52.29;97612.47;4934199;28;20206;-71
2023/03/03 01:27:56;;;;;;;48.50;26.07;;;;;;;6.21;51.93;97615.66;4952535;28;20710;-70
2023/03/03 01:30:22;;;;;;;45.67;25.73;;;;;;;6.24;51.93;97620.63;4951454;28;20197;-70
2023/03/03 01:32:54;;;;;;;51.10;26.40;;;;;;;6.17;52.12;97616.84;5065089;28;20585;-70
2023/03/03 01:35:20;;;;;;;49.30;28.10;;;;;;;6.24;51.69;97625.84;5070913;28;20433;-70
2023/03/03 01:37:45;;;;;;;43.57;26.83;;;;;;;6.28;51.79;97616.88;5070035;28;20744;-70
2023/03/03 01:40:23;;;;;;;46.33;24.80;;;;;;;6.20;51.10;97618.38;5064434;28;20191;-71
2023/03/03 01:42:48;;;;;;;44.63;25.40;;;;;;;6.07;51.68;97618.44;5068516;28;20190;-70
2023/03/03 01:45:21;;;;;;;46.13;27.47;;;;;;;6.07;51.66;97616.69;5064520;28;20443;-70
2023/03/03 01:48:15;;;;;;;47.80;26.23;;;;;;;6.11;51.67;97619.91;5059340;28;20217;-70
2023/03/03 01:50:44;;;;;;;43.90;26.03;;;;;;;6.05;51.65;97615.97;5061835;28;20441;-70
2023/03/03 01:53:14;;;;;;;45.13;25.70;;;;;;;6.08;51.59;97614.91;5073688;28;20440;-69
2023/03/03 01:55:41;;;;;;;47.03;25.27;;;;;;;6.04;51.59;97616.91;5067718;28;20804;-68
2023/03/03 01:58:22;;;;;;;51.23;27.10;;;;;;;5.99;51.63;97617.25;5069455;28;20824;-70
2023/03/03 02:00:50;;;;;;;57.63;28.37;;;;;;;5.86;53.08;97616.47;5065351;28;20452;-70
2023/03/03 02:03:17;;;;;;;49.03;26.90;;;;;;;5.79;52.61;97616.09;5051699;28;20440;-70
2023/03/03 02:05:43;;;;;;;42.60;25.07;;;;;;;5.82;53.23;97612.44;5057511;28;20493;-70
2023/03/03 02:08:11;;;;;;;52.03;26.60;;;;;;;5.85;52.33;97604.41;5052915;28;20932;-70
2023/03/03 02:10:36;;;;;;;46.93;27.83;;;;;;;5.66;53.33;97605.75;5060107;28;20210;-70
2023/03/03 02:13:02;;;;;;;52.83;26.80;;;;;;;5.80;53.39;97601.28;5060319;28;20427;-70
2023/03/03 02:15:31;;;;;;;47.63;26.33;;;;;;;5.90;52.92;97602.31;5062944;28;20194;-70
2023/03/03 02:18:03;;;;;;;49.97;27.00;;;;;;;5.92;52.42;97596.97;5069329;28;20210;-69
2023/03/03 02:20:52;;;;;;;44.10;25.00;;;;;;;5.93;52.50;97594.25;5063161;28;20824;-69
2023/03/03 02:23:27;;;;;;;43.23;25.13;;;;;;;5.95;51.73;97589.75;5060600;28;20512;-70
2023/03/03 02:25:55;;;;;;;42.87;24.73;;;;;;;5.97;51.97;97585.28;5057899;28;20461;-69
2023/03/03 02:28:23;;;;;;;50.63;27.70;;;;;;;5.94;51.79;97587.28;5055612;28;20998;-69
2023/03/03 02:30:48;;;;;;;42.33;24.20;;;;;;;5.94;52.20;97582.91;5065690;28;20465;-69
2023/03/03 02:33:14;;;;;;;49.87;25.70;;;;;;;5.97;51.80;97582.69;5064341;28;20425;-69
2023/03/03 02:35:40;;;;;;;40.50;25.47;;;;;;;5.98;51.45;97584.34;5063549;28;20660;-70
2023/03/03 02:38:29;;;;;;;40.43;24.87;;;;;;;5.97;51.61;97592.28;5053346;28;20287;-70
2023/03/03 02:41:05;;;;;;;49.30;25.67;;;;;;;5.90;51.27;97594.50;5058722;28;20189;-70
2023/03/03 02:43:52;;;;;;;45.83;26.60;;;;;;;5.78;51.64;97592.81;5027130;28;20916;-71
2023/03/03 02:46:18;;;;;;;48.03;27.40;;;;;;;5.71;52.11;97591.56;5036963;28;20422;-68
2023/03/03 02:48:43;;;;;;;45.73;25.70;;;;;;;5.68;52.14;97596.06;5050188;28;20471;-68
2023/03/03 02:51:09;;;;;;;43.70;24.80;;;;;;;5.65;51.98;97593.69;5047949;28;20264;-69
2023/03/03 02:53:34;;;;;;;45.07;25.30;;;;;;;5.65;52.69;97598.91;5049089;28;20191;-71
2023/03/03 02:56:00;;;;;;;42.80;25.90;;;;;;;5.67;52.79;97602.19;5041142;28;20218;-70
2023/03/03 02:58:25;;;;;;;46.60;23.80;;;;;;;5.62;52.82;97599.13;5044422;28;20215;-70
2023/03/03 03:00:50;;;;;;;47.83;26.33;;;;;;;5.66;52.44;97595.34;5057953;28;20325;-70
2023/03/03 03:03:16;;;;;;;38.23;25.10;;;;;;;5.73;52.31;97602.69;5047268;28;20275;-70
2023/03/03 03:05:41;;;;;;;42.27;25.03;;;;;;;5.76;52.56;97599.88;5044734;28;20563;-70
2023/03/03 03:08:07;;;;;;;54.40;29.40;;;;;;;5.89;52.40;97600.66;5051471;28;20249;-71
2023/03/03 03:10:32;;;;;;;62.90;28.30;;;;;;;5.91;52.13;97603.97;5051430;28;20305;-71
2023/03/03 03:12:58;;;;;;;55.47;28.43;;;;;;;5.85;52.68;97607.00;5047719;28;20222;-69
2023/03/03 03:15:23;;;;;;;58.70;28.10;;;;;;;5.87;52.47;97605.13;5047696;28;20659;-71
2023/03/03 03:17:49;;;;;;;52.13;27.50;;;;;;;5.84;52.27;97608.78;5049255;28;20699;-70
2023/03/03 03:20:15;;;;;;;55.30;28.27;;;;;;;5.79;52.37;97605.69;5049448;28;20570;-69
2023/03/03 03:22:40;;;;;;;48.73;27.80;;;;;;;5.81;52.89;97603.81;5042321;28;20994;-69
2023/03/03 03:25:06;;;;;;;50.57;29.67;;;;;;;5.81;52.48;97601.19;5042736;28;20200;-69
2023/03/03 03:27:32;;;;;;;47.80;26.87;;;;;;;5.75;53.00;97608.63;5043329;28;20214;-69
2023/03/03 03:29:57;;;;;;;42.97;25.93;;;;;;;5.63;53.67;97605.97;5041147;28;20257;-68
2023/03/03 03:32:22;;;;;;;42.53;26.50;;;;;;;5.73;53.99;97600.94;5046944;28;20472;-69
2023/03/03 03:34:48;;;;;;;48.17;26.17;;;;;;;5.88;53.55;97601.59;5053440;28;20286;-70
2023/03/03 03:37:14;;;;;;;49.90;27.63;;;;;;;5.95;53.69;97602.78;5046034;28;20874;-70
2023/03/03 03:39:39;;;;;;;46.73;27.07;;;;;;;6.02;53.62;97595.38;5045235;28;20194;-69
2023/03/03 03:42:05;;;;;;;45.53;26.20;;;;;;;6.09;53.23;97600.94;5052054;28;20425;-69
2023/03/03 03:44:31;;;;;;;49.50;26.60;;;;;;;6.11;53.59;97599.06;5053819;28;20246;-70
2023/03/03 03:46:56;;;;;;;46.53;25.80;;;;;;;6.13;53.34;97597.19;5065902;28;20198;-69
2023/03/03 03:49:21;;;;;;;43.93;26.83;;;;;;;6.01;53.56;97600.72;5051322;28;20202;-70
2023/03/03 03:51:47;;;;;;;47.13;27.10;;;;;;;6.08;53.10;97605.34;5055122;28;20199;-69
2023/03/03 03:54:12;;;;;;;55.87;26.27;;;;;;;6.07;52.90;97603.69;5047941;28;20730;-69
2023/03/03 03:56:38;;;;;;;49.10;28.10;;;;;;;6.13;53.22;97607.59;5036780;28;20207;-69
2023/03/03 03:59:05;;;;;;;52.67;25.80;;;;;;;6.12;53.12;97598.94;5057201;28;20252;-68
2023/03/03 04:01:30;;;;;;;43.60;25.50;;;;;;;6.13;53.28;97602.41;5043940;28;20184;-70
2023/03/03 04:03:56;;;;;;;50.50;27.07;;;;;;;6.17;52.99;97609.03;5059965;28;20435;-70
2023/03/03 04:06:21;;;;;;;45.63;25.40;;;;;;;6.14;53.17;97599.66;5048070;28;20282;-70
2023/03/03 04:08:47;;;;;;;46.57;25.63;;;;;;;6.09;53.32;97596.59;5045677;28;20218;-70
2023/03/03 04:11:12;;;;;;;50.20;25.90;;;;;;;5.92;54.16;97600.41;5039410;28;20209;-71
2023/03/03 04:13:38;;;;;;;46.30;26.03;;;;;;;5.99;54.45;97601.66;5052572;28;20695;-70
2023/03/03 04:16:03;;;;;;;46.50;27.50;;;;;;;6.15;54.03;97600.50;5031673;28;20681;-71
2023/03/03 04:18:29;;;;;;;45.93;26.27;;;;;;;6.22;54.24;97599.09;5050600;28;20589;-69
2023/03/03 04:20:54;;;;;;;43.83;27.53;;;;;;;6.26;54.03;97602.28;5048731;28;20206;-71
2023/03/03 04:23:20;;;;;;;46.20;26.67;;;;;;;6.25;53.77;97605.84;5025690;28;20256;-69
2023/03/03 04:25:46;;;;;;;48.33;26.87;;;;;;;6.19;54.11;97606.31;5028725;28;20743;-70
2023/03/03 04:28:12;;;;;;;43.50;25.83;;;;;;;6.25;53.91;97611.88;5046284;28;20345;-70
2023/03/03 04:30:38;;;;;;;44.77;26.67;;;;;;;6.26;53.88;97618.75;5043910;28;20486;-69
2023/03/03 04:33:03;;;;;;;47.40;25.83;;;;;;;6.37;53.87;97619.72;5047232;28;20434;-70
2023/03/03 04:35:29;;;;;;;48.60;26.93;;;;;;;6.38;53.93;97616.16;5038235;28;20270;-70
2023/03/03 04:37:54;;;;;;;44.00;25.83;;;;;;;6.38;53.79;97617.00;5047499;28;20202;-70
2023/03/03 04:40:20;;;;;;;45.07;26.67;;;;;;;6.38;54.05;97616.16;5038810;28;20700;-71
2023/03/03 04:42:45;;;;;;;46.00;26.97;;;;;;;6.44;53.84;97616.53;5044816;28;20210;-70
2023/03/03 04:45:11;;;;;;;48.33;27.93;;;;;;;6.48;54.13;97617.13;5037471;28;20679;-70
2023/03/03 04:47:36;;;;;;;45.33;26.57;;;;;;;6.51;54.00;97610.84;5036041;28;20712;-70
2023/03/03 04:50:02;;;;;;;49.30;29.37;;;;;;;6.58;53.72;97620.69;5035663;28;20667;-68
2023/03/03 04:52:28;;;;;;;52.67;28.90;;;;;;;6.59;54.14;97622.34;5043318;28;20680;-69
2023/03/03 04:54:53;;;;;;;48.27;28.33;;;;;;;6.64;53.92;97627.19;5041650;28;20281;-71
2023/03/03 04:57:18;;;;;;;41.40;26.07;;;;;;;6.67;53.81;97623.56;5035250;28;20744;-70
2023/03/03 04:59:44;;;;;;;49.27;28.17;;;;;;;6.64;53.69;97629.00;5046638;28;20554;-70
2023/03/03 05:02:09;;;;;;;43.43;26.43;;;;;;;6.64;53.70;97631.59;5043064;28;20183;-69
2023/03/03 05:04:35;;;;;;;47.80;27.00;;;;;;;6.64;53.93;97634.19;5034413;28;20186;-71
2023/03/03 05:07:00;;;;;;;55.80;30.70;;;;;;;6.66;53.79;97634.91;5039126;28;20195;-70
2023/03/03 05:09:26;;;;;;;56.00;30.30;;;;;;;6.62;53.76;97636.91;5041220;28;20190;-70
2023/03/03 05:11:52;;;;;;;48.67;28.00;;;;;;;6.59;53.47;97634.56;5040902;28;20695;-70
2023/03/03 05:14:18;;;;;;;44.57;28.00;;;;;;;6.62;53.45;97636.91;5045071;28;20226;-70
2023/03/03 05:16:43;;;;;;;54.87;28.10;;;;;;;6.49;54.25;97636.22;5039756;28;20202;-70
2023/03/03 05:19:08;;;;;;;47.83;27.93;;;;;;;6.45;54.49;97638.19;5035508;28;20241;-69
2023/03/03 05:21:34;;;;;;;46.73;27.83;;;;;;;6.43;54.72;97634.88;5050494;28;20185;-69
2023/03/03 05:23:59;;;;;;;50.10;29.77;;;;;;;6.53;54.47;97638.47;5039702;28;20270;-70
2023/03/03 05:26:25;;;;;;;55.10;32.07;;;;;;;6.61;54.35;97638.69;5036576;28;20707;-70
2023/03/03 05:28:50;;;;;;;55.40;31.27;;;;;;;6.68;54.09;97633.03;5031433;28;20722;-70
2023/03/03 05:31:16;;;;;;;57.80;31.53;;;;;;;6.70;54.05;97636.31;5035454;28;20589;-70
2023/03/03 05:33:41;;;;;;;54.40;31.33;;;;;;;6.68;54.07;97643.44;5045143;28;20198;-70
2023/03/03 05:36:07;;;;;;;62.67;33.80;;;;;;;6.64;54.15;97636.81;5039891;28;20679;-69
2023/03/03 05:38:32;;;;;;;59.70;35.10;;;;;;;6.71;54.14;97643.19;5041682;28;20203;-70
2023/03/03 05:40:58;;;;;;;65.70;37.00;;;;;;;6.72;54.05;97650.91;5040292;28;20226;-70
2023/03/03 05:43:23;;;;;;;61.40;37.90;;;;;;;6.77;54.03;97647.94;5046265;28;20223;-70
2023/03/03 05:45:54;;;;;;;68.73;36.63;;;;;;;6.77;53.76;97645.34;5041394;28;20183;-70
2023/03/03 05:48:20;;;;;;;68.93;37.90;;;;;;;6.80;52.90;97652.94;5044248;28;20198;-71
2023/03/03 05:50:45;;;;;;;63.30;37.47;;;;;;;6.81;53.26;97651.97;5036177;28;20441;-71
2023/03/03 05:53:10;;;;;;;69.37;41.63;;;;;;;6.82;53.81;97661.44;5036732;28;20274;-70
2023/03/03 05:55:36;;;;;;;64.73;38.10;;;;;;;6.87;53.60;97659.31;5038303;28;20639;-70
2023/03/03 05:58:01;;;;;;;65.80;37.40;;;;;;;6.84;53.72;97669.97;5032349;28;20216;-69
2023/03/03 06:00:27;;;;;;;62.53;34.73;;;;;;;6.85;53.63;97668.22;5037562;28;20180;-70
2023/03/03 06:02:52;;;;;;;59.57;34.40;;;;;;;6.88;53.70;97668.81;5042780;28;20219;-71
2023/03/03 06:05:18;;;;;;;62.73;33.13;;;;;;;6.94;53.50;97664.03;5029554;28;20274;-70
2023/03/03 06:07:43;;;;;;;60.83;34.30;;;;;;;7.01;53.01;97665.25;5031800;28;20273;-70
2023/03/03 06:10:09;;;;;;;69.03;34.23;;;;;;;7.04;52.65;97665.03;5031035;28;20697;-70
2023/03/03 06:12:36;;;;;;;59.90;33.30;;;;;;;7.03;51.99;97665.97;5044369;28;20222;-70
2023/03/03 06:15:01;;;;;;;64.70;34.90;;;;;;;6.90;52.81;97669.53;5028255;28;20196;-71
2023/03/03 06:17:27;;;;;;;59.07;34.80;;;;;;;6.91;53.16;97660.75;5028501;28;20454;-72
2023/03/03 06:19:52;;;;;;;53.00;32.63;;;;;;;6.85;52.73;97671.63;5039533;28;20269;-71
2023/03/03 06:22:18;;;;;;;28.77;18.00;;;;;;;7.06;58.42;97678.75;5039750;28;20282;-71
2023/03/03 06:24:43;;;;;;;43.67;25.40;;;;;;;7.57;59.59;97682.63;5033612;28;20591;-72
2023/03/03 06:27:09;;;;;;;56.40;28.67;;;;;;;8.07;56.52;97679.50;5041178;28;20543;-71
2023/03/03 06:29:34;;;;;;;53.67;32.50;;;;;;;8.36;50.60;97683.31;5040735;28;20565;-70
2023/03/03 06:32:00;;;;;;;52.23;30.83;;;;;;;8.23;50.19;97678.25;5033018;28;20210;-71
2023/03/03 06:34:25;;;;;;;58.40;33.13;;;;;;;8.15;49.43;97677.09;5038256;28;20559;-69
2023/03/03 06:36:51;;;;;;;50.87;29.73;;;;;;;8.03;49.85;97678.09;5039473;28;20198;-73
2023/03/03 06:39:16;;;;;;;46.67;28.23;;;;;;;7.88;48.98;97690.59;5035014;28;20215;-71
2023/03/03 06:41:42;;;;;;;60.10;31.80;;;;;;;7.69;49.28;97688.63;5040505;28;20278;-72
2023/03/03 06:44:07;;;;;;;53.73;30.73;;;;;;;7.60;49.94;97697.19;5040919;28;20803;-75
2023/03/03 06:46:33;;;;;;;56.67;32.00;;;;;;;7.53;49.87;97694.25;5036894;28;20183;-75
2023/03/03 06:48:58;;;;;;;51.20;30.40;;;;;;;7.41;50.55;97701.25;5039122;28;20795;-74
2023/03/03 06:51:28;;;;;;;56.53;32.37;;;;;;;7.44;50.18;97705.41;5044527;28;20298;-74
2023/03/03 06:53:55;;;;;;;52.80;28.93;;;;;;;7.46;49.49;97709.53;5037222;28;20646;-72
2023/03/03 06:56:23;;;;;;;57.70;31.20;;;;;;;7.44;49.54;97708.81;5036206;28;20935;-71
2023/03/03 06:58:49;;;;;;;48.67;27.47;;;;;;;7.41;49.88;97703.03;5034573;28;20445;-71
2023/03/03 07:01:16;;;;;;;55.17;29.43;;;;;;;7.51;49.30;97712.63;5020242;28;20448;-72
2023/03/03 07:03:42;;;;;;;52.63;30.20;;;;;;;7.53;48.67;97712.50;5031452;28;20456;-73
2023/03/03 07:06:18;;;;;;;51.57;29.03;;;;;;;7.52;48.98;97709.06;5034100;28;20812;-73
2023/03/03 07:08:43;;;;;;;51.07;29.70;;;;;;;7.52;48.68;97711.69;5029801;28;20471;-75
2023/03/03 07:11:12;;;;;;;50.80;29.23;;;;;;;7.53;48.76;97730.75;5042776;28;20522;-74
2023/03/03 07:13:40;;;;;;;62.43;29.50;;;;;;;7.53;48.09;97722.94;5049595;28;20183;-73
2023/03/03 07:16:11;;;;;;;49.27;29.40;;;;;;;7.47;48.56;97726.84;5039312;28;20422;-73
2023/03/03 07:18:39;;;;;;;54.83;29.73;;;;;;;7.42;49.73;97723.78;5042358;28;20468;-72
2023/03/03 07:21:24;;;;;;;48.70;27.73;;;;;;;7.64;50.37;97729.91;5034506;28;20436;-74
2023/03/03 07:23:51;;;;;;;50.43;27.80;;;;;;;7.83;50.44;97727.50;5033040;28;20433;-71
2023/03/03 07:26:24;;;;;;;50.47;27.60;;;;;;;8.03;50.20;97732.09;5029713;28;20434;-70
2023/03/03 07:28:55;;;;;;;53.47;29.87;;;;;;;8.17;49.11;97737.03;5017251;28;20462;-73
2023/03/03 07:31:41;;;;;;;56.57;27.97;;;;;;;8.35;48.42;97731.28;5042955;28;20465;-73
2023/03/03 07:34:20;;;;;;;50.07;27.90;;;;;;;8.49;48.01;97728.38;5049798;28;20449;-74
2023/03/03 07:36:48;;;;;;;49.17;28.20;;;;;;;8.63;47.79;97723.81;5044544;28;20731;-74
2023/03/03 07:39:39;;;;;;;46.50;25.97;;;;;;;8.74;47.31;97734.19;5038069;28;20458;-72
2023/03/03 07:42:28;;;;;;;46.23;26.20;;;;;;;8.87;46.51;97731.38;5045898;28;20502;-72
2023/03/03 07:44:58;;;;;;;43.70;26.33;;;;;;;8.98;46.15;97730.47;5037753;28;20433;-72
2023/03/03 07:47:26;;;;;;;44.37;26.50;;;;;;;9.07;46.00;97735.75;5040416;28;20461;-73
2023/03/03 07:49:56;;;;;;;51.17;28.77;;;;;;;9.08;44.93;97731.34;5035199;28;20446;-73
2023/03/03 07:52:28;;;;;;;44.50;27.73;;;;;;;8.98;44.45;97726.06;5020431;28;20464;-73
2023/03/03 07:54:59;;;;;;;42.77;27.47;;;;;;;8.76;44.07;97730.50;5031231;28;20426;-73
2023/03/03 07:57:26;;;;;;;54.20;25.70;;;;;;;8.71;44.45;97735.25;5045569;28;20464;-71
2023/03/03 07:59:52;;;;;;;43.10;26.87;;;;;;;8.73;44.18;97738.59;5043586;28;20472;-73
2023/03/03 08:02:40;;;;;;;42.53;25.53;;;;;;;8.79;44.42;97747.69;5038377;28;20454;-71
2023/03/03 08:05:27;;;;;;;46.93;26.70;;;;;;;8.81;44.32;97745.78;5041496;28;20846;-70
2023/03/03 08:07:53;;;;;;;48.70;27.07;;;;;;;8.92;43.94;97737.06;5045385;28;20485;-71
2023/03/03 08:10:42;;;;;;;45.97;27.00;;;;;;;9.12;44.16;97739.75;5030749;28;20527;-71
2023/03/03 08:13:25;;;;;;;49.07;27.63;;;;;;;9.36;43.47;97749.94;5044511;28;20433;-71
2023/03/03 08:15:53;;;;;;;50.00;27.30;;;;;;;9.55;43.10;97751.81;5032515;28;20450;-71
2023/03/03 08:18:22;;;;;;;49.83;24.67;;;;;;;9.74;42.39;97748.41;5037824;28;20482;-70
2023/03/03 08:20:56;;;;;;;45.73;26.50;;;;;;;9.94;41.56;97749.28;5030905;28;20529;-69
2023/03/03 08:23:22;;;;;;;41.67;24.90;;;;;;;10.14;41.59;97747.50;5029298;28;20429;-70
2023/03/03 08:25:48;;;;;;;44.20;26.80;;;;;;;10.29;41.06;97741.88;5038344;28;20525;-71
2023/03/03 08:28:14;;;;;;;43.50;25.30;;;;;;;10.60;41.25;97739.16;5038259;28;20215;-71
2023/03/03 08:30:40;;;;;;;43.63;27.70;;;;;;;10.85;40.13;97737.72;5038194;28;20438;-70
2023/03/03 08:33:05;;;;;;;40.03;25.90;;;;;;;10.93;39.62;97738.81;5035742;28;20229;-70
2023/03/03 08:35:31;;;;;;;44.40;25.57;;;;;;;11.14;39.98;97736.03;5043348;28;20184;-72
2023/03/03 08:37:56;;;;;;;44.70;26.90;;;;;;;11.23;39.15;97743.03;5033081;28;20211;-70
2023/03/03 08:40:22;;;;;;;51.90;27.33;;;;;;;11.33;38.80;97732.50;5029750;28;20184;-69
2023/03/03 08:42:47;;;;;;;42.07;26.23;;;;;;;11.48;38.25;97736.28;5039184;28;20187;-70
2023/03/03 08:45:13;;;;;;;45.53;27.50;;;;;;;11.30;38.71;97738.84;5039131;28;20188;-69
2023/03/03 08:47:38;;;;;;;39.73;26.43;;;;;;;11.52;38.51;97742.91;5042442;28;20213;-71
2023/03/03 08:50:05;;;;;;;44.03;27.33;;;;;;;11.63;38.24;97735.81;5034220;28;20194;-72
2023/03/03 08:52:30;;;;;;;53.37;26.30;;;;;;;11.91;38.14;97733.97;5043461;28;20292;-70
2023/03/03 08:54:56;;;;;;;48.33;28.43;;;;;;;12.07;37.59;97738.63;5060303;28;21007;-70
2023/03/03 08:57:21;;;;;;;44.27;26.30;;;;;;;12.27;37.13;97743.72;5028350;28;20745;-72
2023/03/03 08:59:47;;;;;;;41.30;25.87;;;;;;;12.70;36.81;97739.50;5038907;28;20191;-71
2023/03/03 09:02:12;;;;;;;38.00;25.57;;;;;;;13.02;36.34;97747.78;5040604;28;20187;-74
2023/03/03 09:04:37;;;;;;;44.80;27.47;;;;;;;13.16;36.48;97749.84;5033283;28;20206;-73
2023/03/03 09:07:03;;;;;;;39.57;26.37;;;;;;;13.45;35.43;97759.25;5038950;28;20261;-72
2023/03/03 09:09:28;;;;;;;45.17;27.50;;;;;;;13.35;34.17;97759.34;5035078;28;20719;-75
2023/03/03 09:11:58;;;;;;;43.83;27.33;;;;;;;13.42;34.84;97758.72;5044967;28;20699;-73
2023/03/03 09:14:27;;;;;;;44.80;28.20;;;;;;;13.64;35.13;97765.25;5037659;28;20188;-75
2023/03/03 09:16:54;;;;;;;45.00;28.20;;;;;;;13.69;34.55;97773.50;5036709;28;20426;-73
2023/03/03 09:19:28;;;;;;;43.57;28.03;;;;;;;13.49;34.85;97765.84;5030655;28;20521;-73
2023/03/03 09:21:55;;;;;;;48.10;29.10;;;;;;;13.39;34.82;97780.06;5038114;28;20828;-72
2023/03/03 09:24:29;;;;;;;43.17;26.00;;;;;;;13.30;35.00;97780.03;5021174;28;20434;-72
2023/03/03 09:26:57;;;;;;;45.47;25.60;;;;;;;13.37;34.63;97770.53;5044199;28;20519;-73
2023/03/03 09:29:30;;;;;;;41.90;25.27;;;;;;;13.14;34.54;97783.41;5047352;28;21623;-74
2023/03/03 09:31:58;;;;;;;43.50;26.03;;;;;;;12.91;35.34;97777.78;5045172;28;20552;-75
2023/03/03 09:34:24;;;;;;;37.03;25.00;;;;;;;13.13;35.10;97778.28;5033730;28;20434;-74
2023/03/03 09:36:54;;;;;;;38.70;25.77;;;;;;;13.21;35.35;97778.34;5039979;28;20441;-73
2023/03/03 09:39:24;;;;;;;38.00;24.40;;;;;;;13.09;34.80;97780.38;5035881;28;20879;-72
2023/03/03 09:42:33;;;;;;;36.13;24.40;;;;;;;13.09;34.99;97779.56;5035142;28;20437;-76
2023/03/03 09:45:11;;;;;;;34.70;23.67;;;;;;;13.40;34.63;97776.50;5032126;28;20418;-73
2023/03/03 09:47:58;;;;;;;38.07;24.07;;;;;;;13.72;34.10;97781.09;5042382;28;20535;-72
2023/03/03 09:50:47;;;;;;;35.90;24.53;;;;;;;13.38;33.53;97779.25;5031158;28;20440;-72
2023/03/03 09:53:30;;;;;;;35.00;23.97;;;;;;;13.03;34.36;97778.38;5019741;28;20452;-70
2023/03/03 09:56:11;;;;;;;33.67;24.10;;;;;;;13.15;34.57;97773.69;5038489;28;20442;-72
2023/03/03 09:58:50;;;;;;;40.47;25.60;;;;;;;13.36;34.40;97771.50;5041839;28;20458;-73
2023/03/03 10:01:36;;;;;;;37.10;23.07;;;;;;;13.38;33.67;97779.25;5040232;28;20510;-72
2023/03/03 10:04:05;;;;;;;35.90;24.53;;;;;;;12.95;34.60;97773.06;5034145;28;20509;-71
2023/03/03 10:06:37;;;;;;;36.90;23.80;;;;;;;13.29;35.16;97774.94;5034887;28;20975;-71
2023/03/03 10:09:33;;;;;;;36.43;23.23;;;;;;;13.30;34.50;97772.13;5031749;28;20458;-71
2023/03/03 10:12:26;;;;;;;37.87;24.67;;;;;;;13.13;34.88;97775.63;5040961;28;20828;-71
2023/03/03 10:15:05;;;;;;;37.63;25.00;;;;;;;13.08;34.51;97783.19;5034821;28;20487;-72
2023/03/03 10:17:57;;;;;;;41.13;24.10;;;;;;;12.77;35.07;97786.22;5035214;28;20561;-72
2023/03/03 10:20:38;;;;;;;38.63;25.20;;;;;;;12.57;35.34;97778.53;5039242;28;20430;-72
2023/03/03 10:23:33;;;;;;;35.33;24.57;;;;;;;12.63;35.55;97780.53;5046874;28;20455;-71
2023/03/03 10:26:04;;;;;;;42.57;24.10;;;;;;;12.75;35.46;97779.31;5031211;28;20426;-72
2023/03/03 10:28:43;;;;;;;39.53;25.30;;;;;;;12.54;35.73;97781.44;5048913;28;20453;-70
2023/03/03 10:31:26;;;;;;;43.23;25.30;;;;;;;12.92;35.36;97778.63;5045356;28;20464;-70
2023/03/03 10:34:13;;;;;;;35.03;23.83;;;;;;;12.86;35.51;97780.03;5040672;28;20445;-70
2023/03/03 10:36:44;;;;;;;39.23;26.17;;;;;;;12.88;35.10;97778.94;5037045;28;20434;-73
2023/03/03 10:39:35;;;;;;;36.00;24.07;;;;;;;13.50;34.96;97774.56;5043826;28;20445;-71
2023/03/03 10:42:33;;;;;;;40.70;23.90;;;;;;;13.69;33.84;97775.31;5039358;28;20422;-71
2023/03/03 10:45:45;;;;;;;43.80;24.80;;;;;;;13.98;34.06;97790.75;5035438;28;20682;-71
2023/03/03 10:48:19;;;;;;;40.07;25.37;;;;;;;14.18;33.32;97779.91;5049685;28;20506;-71
2023/03/03 10:51:00;;;;;;;41.50;24.40;;;;;;;14.36;33.40;97777.19;5039892;28;20433;-73
2023/03/03 10:54:13;;;;;;;38.80;24.60;;;;;;;15.05;32.74;97771.59;5025385;28;20434;-72
2023/03/03 10:56:54;;;;;;;49.40;26.03;;;;;;;15.38;31.80;97770.72;5028144;28;20514;-71
2023/03/03 10:59:38;;;;;;;39.50;26.73;;;;;;;15.52;31.40;97773.47;5044923;28;20460;-72
2023/03/03 11:02:10;;;;;;;43.13;26.23;;;;;;;15.17;31.52;97772.09;5037562;28;20516;-73
2023/03/03 11:04:42;;;;;;;42.00;24.90;;;;;;;15.10;32.05;97761.38;5047565;28;20436;-72
2023/03/03 11:07:20;;;;;;;36.87;24.70;;;;;;;15.33;32.12;97761.47;5042879;28;22212;-71
2023/03/03 11:09:58;;;;;;;35.60;23.17;;;;;;;15.23;31.16;97768.75;5041520;28;20491;-73
2023/03/03 11:12:30;;;;;;;35.40;25.93;;;;;;;14.87;31.29;97772.59;5047001;28;21016;-72
2023/03/03 11:15:17;;;;;;;36.20;24.10;;;;;;;14.80;32.03;97768.16;5032107;28;20453;-73
2023/03/03 11:17:57;;;;;;;36.27;25.17;;;;;;;14.79;32.02;97775.25;5048409;28;20461;-72
2023/03/03 11:21:01;;;;;;;38.73;24.63;;;;;;;14.58;32.40;97776.53;5037633;28;20510;-73
2023/03/03 11:23:54;;;;;;;39.03;24.83;;;;;;;14.15;32.63;97775.78;5029106;28;20934;-73
2023/03/03 11:26:45;;;;;;;40.27;25.37;;;;;;;14.27;33.01;97785.06;5035778;28;20818;-71
2023/03/03 11:29:48;;;;;;;39.20;23.90;;;;;;;14.40;33.15;97783.75;5055872;28;20444;-71
2023/03/03 11:32:22;;;;;;;35.73;23.93;;;;;;;14.36;33.13;97780.63;5043241;28;21052;-72
2023/03/03 11:35:10;;;;;;;38.07;24.97;;;;;;;14.35;33.19;97786.06;5048666;28;20517;-71
2023/03/03 11:37:38;;;;;;;41.50;25.93;;;;;;;14.21;33.26;97785.72;5032134;28;20450;-71